Terminal Aerodrome Forecast
Issued by NWS St Louis, MO

Home | Current Version | Previous Version | Graphics & Text | Print | Product List | Glossary On
Versions: 1 2 3 4 5 6 7 8 9 10 11 12 13 14 15 16 17 18 19 20 21 22 23 24 25 26 27 28 29 30 31 32
000
FTUS43 KLSX 271100
TAFSTL
TAF
KSTL 271137Z 2712/2818 33007KT P6SM BKN035
     FM272200 VRB05KT P6SM SCT030
     FM280400 11007KT P6SM SCT030
     FM281400 15014KT P6SM BKN250=

USA.gov is the U.S. government's official web portal to all federal, state and local government web resources and services.